Valley Falls, KS

6:13 PM CST on March 05, 2015 (GMT -0600)
Kansas City International | Change Station
CLOSE
Current Station
Airport
Location: Kansas City International,
Elevation: 1024 ft
Nearby Weather Stations

Elev 1024 ft 39.30 °N, 94.73 °W | Updated 20 minutes ago

Clear
Clear
29 °F
Feels Like 21 °F
N
8
Wind Variable Wind from South

Today
High -- | Low -- °F
--% Chance of Precip.
Yesterday
High -- | Low -- °F
Precip. -- in
6:48 AM 6:18 PM
Full, 100% visible
Pressure 30.53 in
Visibility 10.0 miles
Clouds Few 20000 ft
Windchill 21 °F
Dew Point 5 °F
Humidity 36%
Rainfall 0.00 in
Snow Depth Not available.
UV 0 out of 12
Pollen .50 out of 12
Air Quality Not available.
Flu Activity Not available.
METAR KMCI 052353Z 18007KT 10SM FEW200 M02/M15 A3048 RMK AO2 SLP337 T10171150 10000 21056 56004

More Conditions Fewer Conditions

Pressure 30.53 in
Visibility 10.0 miles
Clouds Few 20000 ft
Windchill 21 °F
Dew Point 5 °F
Humidity 36%
Rainfall 0.00 in
Snow Depth Not available.
UV 0 out of 12
Pollen .50 out of 12
Air Quality Not available.
Flu Activity Not available.
METAR KMCI 052353Z 18007KT 10SM FEW200 M02/M15 A3048 RMK AO2 SLP337 T10171150 10000 21056 56004

More Conditions Fewer Conditions

10-Day Weather Forecast

Almanac

Astronomy

Mar. 05, 2015 Rise Set
Actual Time
Civil Twilight
Nautical Twilight
Astronomical Twilight
Moon
Length of Visible Light
Length of Day
Tomorrow will be .
, % of the Moon is Illuminated

Today's Extremes

State Highs State Lows

Community

WunderPhotos

Upload Photos

1,803,068 photos uploaded!

WunderBlogs® & News

Nearby

Air Quality

  Air Quality AQ Index Pollutant
Not available.

Snow Depth

Station Depth Elevation

Earthquake Activity

City Distance Mag. Time & Date
Minimum magnitude displayed is 2.5.

Coastal Water Temperatures

Place Temperature

Nearby Weather Stations